Time;durP1;ratioP1;P1;durP2;ratioP2;P2;SDS_P1;SDS_P2;PMS_P1;PMS_P2;Temp;Humidity;BMP_temperature;BMP_pressure;BME280_temperature;BME280_humidity;BME280_pressure;Samples;Min_cycle;Max_cycle;Signal;HPM_P1;HPM_P2
2023/09/27 00:00:35;;;;;;;25.70;22.80;;;;;;;;;;5086178;28;20052;-76
2023/09/27 00:03:03;;;;;;;25.45;22.85;;;;;;;;;;5076278;28;20087;-76
2023/09/27 00:05:29;;;;;;;25.52;22.42;;;;;;;;;;5077154;28;20044;-77
2023/09/27 00:07:59;;;;;;;24.77;22.35;;;;;;;;;;5076606;28;20051;-77
2023/09/27 00:10:25;;;;;;;25.70;23.08;;;;;;;;;;5086420;28;20049;-76
2023/09/27 00:12:51;;;;;;;26.30;23.65;;;;;;;;;;5075377;28;20083;-77
2023/09/27 00:15:17;;;;;;;25.40;22.90;;;;;;;;;;5073332;28;20449;-77
2023/09/27 00:17:43;;;;;;;25.50;22.88;;;;;;;;;;5088682;28;20058;-78
2023/09/27 00:20:13;;;;;;;28.05;24.70;;;;;;;;;;5086957;28;20079;-77
2023/09/27 00:22:39;;;;;;;26.58;23.77;;;;;;;;;;5075832;28;20051;-77
2023/09/27 00:25:08;;;;;;;27.75;24.90;;;;;;;;;;5073813;28;20055;-76
2023/09/27 00:27:34;;;;;;;28.00;25.10;;;;;;;;;;5087613;28;20044;-77
2023/09/27 00:30:00;;;;;;;28.83;25.80;;;;;;;;;;5073890;28;20041;-77
2023/09/27 00:32:26;;;;;;;29.00;26.15;;;;;;;;;;5073197;28;20098;-77
2023/09/27 00:34:52;;;;;;;28.40;25.40;;;;;;;;;;5074383;28;20403;-77
2023/09/27 00:37:18;;;;;;;29.10;26.27;;;;;;;;;;5072487;28;20055;-76
2023/09/27 00:39:44;;;;;;;30.63;27.70;;;;;;;;;;5086129;28;20050;-76
2023/09/27 00:42:10;;;;;;;30.77;27.55;;;;;;;;;;5087516;28;20047;-77
2023/09/27 00:44:37;;;;;;;30.48;27.33;;;;;;;;;;5072932;28;20059;-77
2023/09/27 00:47:04;;;;;;;30.27;27.00;;;;;;;;;;5076210;28;20076;-77
2023/09/27 00:49:31;;;;;;;30.52;27.35;;;;;;;;;;5074635;28;20040;-77
2023/09/27 00:51:58;;;;;;;29.60;26.00;;;;;;;;;;5079344;28;20093;-77
2023/09/27 00:54:24;;;;;;;31.35;27.48;;;;;;;;;;5082965;28;20127;-77
2023/09/27 00:56:51;;;;;;;29.30;26.23;;;;;;;;;;5079737;28;20089;-77
2023/09/27 00:59:18;;;;;;;28.92;26.00;;;;;;;;;;5074709;28;20113;-77
2023/09/27 01:01:45;;;;;;;29.70;26.58;;;;;;;;;;5074398;28;20041;-77
2023/09/27 01:04:12;;;;;;;30.95;27.73;;;;;;;;;;5071780;28;20040;-76
2023/09/27 01:06:38;;;;;;;31.02;27.98;;;;;;;;;;5081628;28;20047;-76
2023/09/27 01:09:04;;;;;;;30.75;27.85;;;;;;;;;;5091194;28;20056;-76
2023/09/27 01:11:31;;;;;;;30.98;28.00;;;;;;;;;;5074269;28;20053;-77
2023/09/27 01:13:57;;;;;;;31.75;28.55;;;;;;;;;;5072997;28;20471;-77
2023/09/27 01:16:24;;;;;;;33.05;29.55;;;;;;;;;;5075515;28;20048;-76
2023/09/27 01:18:50;;;;;;;32.75;29.40;;;;;;;;;;5076295;28;20406;-77
2023/09/27 01:21:19;;;;;;;32.42;28.95;;;;;;;;;;5075065;28;20051;-77
2023/09/27 01:23:46;;;;;;;32.65;29.42;;;;;;;;;;5082190;28;20040;-76
2023/09/27 01:26:13;;;;;;;32.92;29.52;;;;;;;;;;5089910;28;20043;-78
2023/09/27 01:28:41;;;;;;;33.22;29.83;;;;;;;;;;5085531;28;20041;-76
2023/09/27 01:31:07;;;;;;;33.08;29.85;;;;;;;;;;5075661;28;20040;-77
2023/09/27 01:33:33;;;;;;;34.42;30.83;;;;;;;;;;5079543;28;20129;-77
2023/09/27 01:35:59;;;;;;;34.15;30.85;;;;;;;;;;5072774;28;20049;-76
2023/09/27 01:38:26;;;;;;;35.17;31.27;;;;;;;;;;5074247;28;20563;-76
2023/09/27 01:40:52;;;;;;;32.83;29.58;;;;;;;;;;5089765;28;20081;-77
2023/09/27 01:43:18;;;;;;;36.60;31.25;;;;;;;;;;5072143;28;20530;-77
2023/09/27 01:45:44;;;;;;;36.67;31.98;;;;;;;;;;5073065;28;20052;-77
2023/09/27 01:48:10;;;;;;;34.47;30.90;;;;;;;;;;5077925;28;20486;-77
2023/09/27 01:50:37;;;;;;;32.95;29.65;;;;;;;;;;5076603;28;20036;-77
2023/09/27 01:53:04;;;;;;;34.28;30.63;;;;;;;;;;5075831;28;20395;-77
2023/09/27 01:55:31;;;;;;;33.80;30.40;;;;;;;;;;5072958;28;20049;-77
2023/09/27 01:57:57;;;;;;;34.53;30.92;;;;;;;;;;5071097;28;20037;-77
2023/09/27 02:00:23;;;;;;;33.83;30.40;;;;;;;;;;5082585;28;20055;-76
2023/09/27 02:03:02;;;;;;;32.85;29.65;;;;;;;;;;5075031;28;20087;-76
2023/09/27 02:05:29;;;;;;;33.22;29.80;;;;;;;;;;5076602;28;20539;-77
2023/09/27 02:07:55;;;;;;;36.03;32.33;;;;;;;;;;5075755;28;20120;-76
2023/09/27 02:10:22;;;;;;;35.47;31.73;;;;;;;;;;5091079;28;20499;-77
2023/09/27 02:12:48;;;;;;;34.83;31.38;;;;;;;;;;5083135;28;20048;-76
2023/09/27 02:15:15;;;;;;;35.22;31.63;;;;;;;;;;5082269;28;20043;-76
2023/09/27 02:17:42;;;;;;;34.25;30.75;;;;;;;;;;5086227;28;20044;-76
2023/09/27 02:20:13;;;;;;;33.30;29.85;;;;;;;;;;5079490;28;20048;-77
2023/09/27 02:22:42;;;;;;;35.60;32.03;;;;;;;;;;5093620;28;20193;-77
2023/09/27 02:25:09;;;;;;;35.83;32.30;;;;;;;;;;5078954;28;20044;-76
2023/09/27 02:27:36;;;;;;;37.15;33.33;;;;;;;;;;5087939;28;20043;-76
2023/09/27 02:30:03;;;;;;;35.70;32.08;;;;;;;;;;5075111;28;20511;-77
2023/09/27 02:32:29;;;;;;;35.30;31.50;;;;;;;;;;5075810;28;20044;-77
2023/09/27 02:34:55;;;;;;;34.60;31.17;;;;;;;;;;5077233;28;20053;-77
2023/09/27 02:37:21;;;;;;;36.20;32.47;;;;;;;;;;5075895;28;20051;-77
2023/09/27 02:39:47;;;;;;;36.50;32.85;;;;;;;;;;5074241;28;20036;-77
2023/09/27 02:42:14;;;;;;;36.33;32.72;;;;;;;;;;5075193;28;20449;-76
2023/09/27 02:44:40;;;;;;;34.90;31.23;;;;;;;;;;5074765;28;20048;-76
2023/09/27 02:47:07;;;;;;;36.30;32.60;;;;;;;;;;5082779;28;20102;-76
2023/09/27 02:49:37;;;;;;;36.95;33.35;;;;;;;;;;5075146;28;20094;-77
2023/09/27 02:52:03;;;;;;;38.92;35.08;;;;;;;;;;5083773;28;20090;-77
2023/09/27 02:54:29;;;;;;;38.83;35.00;;;;;;;;;;5080459;28;20477;-76
2023/09/27 02:56:55;;;;;;;37.65;33.83;;;;;;;;;;5081492;28;20406;-76
2023/09/27 02:59:21;;;;;;;39.40;35.35;;;;;;;;;;5078137;28;20049;-76
2023/09/27 03:01:48;;;;;;;37.58;33.83;;;;;;;;;;5078204;28;20097;-78
2023/09/27 03:04:17;;;;;;;38.03;34.15;;;;;;;;;;5089691;28;20498;-76
2023/09/27 03:06:43;;;;;;;37.13;33.08;;;;;;;;;;5082071;28;20093;-76
2023/09/27 03:09:11;;;;;;;36.85;33.15;;;;;;;;;;5077761;28;20067;-76
2023/09/27 03:11:37;;;;;;;38.83;34.63;;;;;;;;;;5087864;28;20056;-76
2023/09/27 03:14:04;;;;;;;38.35;34.22;;;;;;;;;;5080695;28;20044;-77
2023/09/27 03:16:30;;;;;;;37.35;33.60;;;;;;;;;;5089850;28;20486;-78
2023/09/27 03:18:58;;;;;;;37.10;33.53;;;;;;;;;;5077937;28;20044;-77
2023/09/27 03:21:26;;;;;;;38.67;34.60;;;;;;;;;;5085635;28;20435;-77
2023/09/27 03:23:53;;;;;;;38.20;34.40;;;;;;;;;;5077568;28;20044;-76
2023/09/27 03:26:19;;;;;;;39.13;35.05;;;;;;;;;;5073223;28;20052;-78
2023/09/27 03:28:45;;;;;;;38.78;34.67;;;;;;;;;;5080949;28;20047;-77
2023/09/27 03:31:11;;;;;;;38.72;34.72;;;;;;;;;;5091694;28;20041;-76
2023/09/27 03:33:37;;;;;;;38.80;34.80;;;;;;;;;;5081401;28;20043;-76
2023/09/27 03:36:03;;;;;;;37.13;33.42;;;;;;;;;;5070332;28;20044;-76
2023/09/27 03:38:30;;;;;;;37.60;33.80;;;;;;;;;;5079048;28;20491;-76
2023/09/27 03:40:56;;;;;;;36.88;33.10;;;;;;;;;;5074192;28;20109;-77
2023/09/27 03:43:22;;;;;;;37.92;33.78;;;;;;;;;;5077112;28;20040;-76
2023/09/27 03:45:49;;;;;;;37.03;33.35;;;;;;;;;;5089694;28;20044;-76
2023/09/27 03:48:16;;;;;;;37.22;33.63;;;;;;;;;;5091421;28;20044;-77
2023/09/27 03:50:42;;;;;;;37.88;34.13;;;;;;;;;;5081278;28;20150;-77
2023/09/27 03:53:08;;;;;;;38.25;34.38;;;;;;;;;;5072050;28;20526;-76
2023/09/27 03:55:34;;;;;;;40.67;36.33;;;;;;;;;;5075160;28;20053;-76
2023/09/27 03:58:00;;;;;;;39.58;35.40;;;;;;;;;;5073564;28;20147;-76
2023/09/27 04:00:26;;;;;;;38.72;34.78;;;;;;;;;;5074033;28;20044;-76
2023/09/27 04:02:52;;;;;;;39.05;35.03;;;;;;;;;;5074258;28;20093;-76
2023/09/27 04:05:21;;;;;;;39.60;35.70;;;;;;;;;;5076225;28;20049;-76
2023/09/27 04:07:47;;;;;;;41.10;36.90;;;;;;;;;;5072208;28;20403;-76
2023/09/27 04:10:13;;;;;;;40.35;36.35;;;;;;;;;;5082478;28;20498;-76
2023/09/27 04:12:39;;;;;;;40.00;35.92;;;;;;;;;;5092520;28;20048;-76
2023/09/27 04:15:09;;;;;;;38.38;34.35;;;;;;;;;;5086552;28;20039;-76
2023/09/27 04:17:37;;;;;;;39.22;35.30;;;;;;;;;;5087863;28;20086;-76
2023/09/27 04:20:25;;;;;;;37.33;33.58;;;;;;;;;;5084981;28;20040;-76
2023/09/27 04:22:50;;;;;;;38.97;34.97;;;;;;;;;;5072525;28;20486;-77
2023/09/27 04:25:17;;;;;;;38.88;34.88;;;;;;;;;;5084164;28;20062;-76
2023/09/27 04:27:45;;;;;;;38.90;34.80;;;;;;;;;;5083166;28;20110;-77
2023/09/27 04:30:12;;;;;;;40.33;36.13;;;;;;;;;;5088329;28;20048;-77
2023/09/27 04:32:39;;;;;;;39.58;35.50;;;;;;;;;;5073060;28;20045;-77
2023/09/27 04:35:05;;;;;;;40.15;36.13;;;;;;;;;;5071138;28;20055;-76
2023/09/27 04:37:32;;;;;;;39.60;35.60;;;;;;;;;;5086457;28;20093;-76
2023/09/27 04:39:58;;;;;;;35.78;31.83;;;;;;;;;;5087110;28;20387;-76
2023/09/27 04:42:24;;;;;;;42.30;37.75;;;;;;;;;;5078596;28;20044;-76
2023/09/27 04:44:50;;;;;;;42.13;37.85;;;;;;;;;;5077305;28;20402;-76
2023/09/27 04:47:16;;;;;;;41.38;37.00;;;;;;;;;;5091352;28;20043;-76
2023/09/27 04:49:42;;;;;;;42.17;37.95;;;;;;;;;;5079593;28;20482;-76
2023/09/27 04:52:08;;;;;;;41.67;37.45;;;;;;;;;;5073634;28;20036;-76
2023/09/27 04:54:34;;;;;;;40.45;36.22;;;;;;;;;;5071264;28;20041;-76
2023/09/27 04:57:00;;;;;;;40.83;36.45;;;;;;;;;;5077563;28;20036;-76
2023/09/27 04:59:26;;;;;;;39.47;35.25;;;;;;;;;;5087077;28;20059;-77
2023/09/27 05:01:52;;;;;;;41.15;36.85;;;;;;;;;;5090113;28;20051;-78
2023/09/27 05:04:18;;;;;;;42.55;35.75;;;;;;;;;;5093551;28;20075;-77
2023/09/27 05:06:45;;;;;;;41.70;37.55;;;;;;;;;;5084488;28;20047;-76
2023/09/27 05:09:11;;;;;;;40.00;35.70;;;;;;;;;;5083327;28;20056;-76
2023/09/27 05:11:37;;;;;;;43.35;39.03;;;;;;;;;;5076091;28;20102;-78
2023/09/27 05:14:05;;;;;;;39.67;35.65;;;;;;;;;;5074047;28;20071;-78
2023/09/27 05:16:35;;;;;;;39.92;35.70;;;;;;;;;;5073461;28;20070;-76
2023/09/27 05:19:01;;;;;;;39.22;35.08;;;;;;;;;;5076553;28;20049;-76
2023/09/27 05:21:28;;;;;;;38.33;34.63;;;;;;;;;;5074233;28;20102;-77
2023/09/27 05:23:54;;;;;;;37.88;33.90;;;;;;;;;;5075446;28;20126;-76
2023/09/27 05:26:20;;;;;;;37.83;33.90;;;;;;;;;;5069683;28;20037;-76
2023/09/27 05:28:46;;;;;;;38.42;34.38;;;;;;;;;;5071489;28;20044;-78
2023/09/27 05:31:12;;;;;;;37.35;33.45;;;;;;;;;;5071816;28;20060;-76
2023/09/27 05:33:38;;;;;;;37.88;33.80;;;;;;;;;;5077340;28;20119;-76
2023/09/27 05:36:05;;;;;;;35.92;32.15;;;;;;;;;;5078686;28;20052;-77
2023/09/27 05:38:31;;;;;;;38.22;34.42;;;;;;;;;;5090142;28;20040;-77
2023/09/27 05:40:57;;;;;;;37.47;33.83;;;;;;;;;;5090912;28;20044;-77
2023/09/27 05:43:23;;;;;;;40.78;36.78;;;;;;;;;;5083146;28;20048;-78
2023/09/27 05:45:49;;;;;;;41.03;36.90;;;;;;;;;;5076583;28;20083;-77
2023/09/27 05:48:16;;;;;;;39.90;35.90;;;;;;;;;;5076497;28;20048;-78
2023/09/27 05:50:44;;;;;;;43.80;39.25;;;;;;;;;;5075672;28;20095;-78
2023/09/27 05:53:16;;;;;;;43.88;39.40;;;;;;;;;;5076988;28;20487;-77
2023/09/27 05:55:42;;;;;;;40.25;36.08;;;;;;;;;;5078275;28;20037;-77
2023/09/27 05:58:09;;;;;;;44.72;40.20;;;;;;;;;;5078487;28;20383;-76
2023/09/27 06:00:42;;;;;;;42.38;37.60;;;;;;;;;;5087681;28;20545;-78
2023/09/27 06:03:11;;;;;;;41.58;37.38;;;;;;;;;;5081039;28;20490;-77
2023/09/27 06:05:37;;;;;;;39.85;35.63;;;;;;;;;;5081734;28;20498;-77
2023/09/27 06:08:03;;;;;;;39.47;35.42;;;;;;;;;;5085742;28;20041;-78
2023/09/27 06:10:29;;;;;;;38.92;34.92;;;;;;;;;;5079438;28;20040;-77
2023/09/27 06:12:56;;;;;;;38.97;35.05;;;;;;;;;;5080375;28;20124;-77
2023/09/27 06:15:22;;;;;;;41.35;37.08;;;;;;;;;;5075643;28;20052;-77
2023/09/27 06:17:48;;;;;;;42.17;37.97;;;;;;;;;;5074656;28;20060;-77
2023/09/27 06:20:22;;;;;;;41.85;37.65;;;;;;;;;;5082257;28;20052;-78
2023/09/27 06:22:49;;;;;;;40.40;36.30;;;;;;;;;;5078915;28;20423;-77
2023/09/27 06:25:16;;;;;;;41.50;37.40;;;;;;;;;;5093350;28;20059;-76
2023/09/27 06:27:42;;;;;;;40.00;35.90;;;;;;;;;;5087009;28;20044;-77
2023/09/27 06:30:08;;;;;;;40.13;36.20;;;;;;;;;;5079825;28;20494;-77
2023/09/27 06:32:35;;;;;;;42.35;37.95;;;;;;;;;;5095390;28;20066;-77
2023/09/27 06:35:10;;;;;;;41.83;37.45;;;;;;;;;;5083592;28;20064;-77
2023/09/27 06:37:36;;;;;;;43.30;38.78;;;;;;;;;;5083389;28;20059;-77
2023/09/27 06:40:09;;;;;;;42.13;37.72;;;;;;;;;;5075691;28;20048;-77
2023/09/27 06:42:36;;;;;;;41.92;37.80;;;;;;;;;;5074969;28;20041;-78
2023/09/27 06:45:02;;;;;;;41.00;37.00;;;;;;;;;;5074481;28;20106;-77
2023/09/27 06:47:30;;;;;;;41.15;36.85;;;;;;;;;;5084924;28;20044;-78
2023/09/27 06:49:56;;;;;;;41.83;37.72;;;;;;;;;;5083055;28;20048;-78
2023/09/27 06:52:22;;;;;;;39.47;35.78;;;;;;;;;;5086557;28;20048;-78
2023/09/27 06:54:49;;;;;;;40.67;36.67;;;;;;;;;;5091257;28;20090;-77
2023/09/27 06:57:15;;;;;;;40.70;36.58;;;;;;;;;;5092079;28;20044;-77
2023/09/27 06:59:41;;;;;;;41.08;37.08;;;;;;;;;;5084634;28;20036;-76
2023/09/27 07:02:08;;;;;;;38.83;34.90;;;;;;;;;;5092683;28;20482;-79
2023/09/27 07:04:34;;;;;;;39.33;35.25;;;;;;;;;;5092859;28;20048;-78
2023/09/27 07:07:02;;;;;;;39.15;35.15;;;;;;;;;;5075237;28;20131;-78
2023/09/27 07:09:28;;;;;;;39.50;35.67;;;;;;;;;;5084179;28;20048;-78
2023/09/27 07:11:54;;;;;;;40.80;36.83;;;;;;;;;;5094534;28;20056;-79
2023/09/27 07:14:20;;;;;;;37.92;34.05;;;;;;;;;;5094800;28;20036;-79
2023/09/27 07:16:46;;;;;;;35.47;32.15;;;;;;;;;;5092188;28;20495;-78
2023/09/27 07:19:13;;;;;;;36.40;32.83;;;;;;;;;;5095567;28;20075;-79
2023/09/27 07:21:39;;;;;;;36.85;33.25;;;;;;;;;;5094320;28;20135;-77
2023/09/27 07:24:05;;;;;;;35.17;31.90;;;;;;;;;;5077392;28;20041;-79
2023/09/27 07:26:31;;;;;;;34.70;31.48;;;;;;;;;;5076740;28;20048;-77
2023/09/27 07:28:57;;;;;;;35.13;31.83;;;;;;;;;;5082396;28;20133;-78
2023/09/27 07:31:26;;;;;;;34.17;30.80;;;;;;;;;;5075613;28;20076;-78
2023/09/27 07:33:55;;;;;;;34.75;31.35;;;;;;;;;;5090199;28;20490;-77
2023/09/27 07:36:24;;;;;;;35.22;31.90;;;;;;;;;;5092806;28;20471;-77
2023/09/27 07:38:50;;;;;;;36.25;32.72;;;;;;;;;;5090441;28;20115;-77
2023/09/27 07:41:17;;;;;;;34.13;30.73;;;;;;;;;;5092741;28;20075;-78
2023/09/27 07:43:43;;;;;;;34.28;31.27;;;;;;;;;;5082857;28;20127;-76
2023/09/27 07:46:09;;;;;;;32.17;28.88;;;;;;;;;;5073484;28;20049;-77
2023/09/27 07:48:39;;;;;;;30.73;27.85;;;;;;;;;;5083493;28;20049;-77
2023/09/27 07:51:15;;;;;;;35.17;31.58;;;;;;;;;;5088666;28;20093;-77
2023/09/27 07:53:41;;;;;;;35.08;31.63;;;;;;;;;;5089062;28;20055;-77
2023/09/27 07:56:09;;;;;;;34.20;30.85;;;;;;;;;;5086221;28;20040;-78
2023/09/27 07:58:36;;;;;;;36.28;32.78;;;;;;;;;;5076438;28;20074;-77
2023/09/27 08:01:02;;;;;;;35.22;31.77;;;;;;;;;;5085389;28;20079;-76
2023/09/27 08:03:28;;;;;;;35.25;31.77;;;;;;;;;;5092071;28;20071;-79
2023/09/27 08:05:54;;;;;;;31.67;28.67;;;;;;;;;;5087264;28;20059;-79
2023/09/27 08:08:22;;;;;;;36.63;32.83;;;;;;;;;;5082786;28;20036;-78
2023/09/27 08:10:49;;;;;;;36.08;32.58;;;;;;;;;;5076758;28;20044;-78
2023/09/27 08:13:17;;;;;;;30.63;27.48;;;;;;;;;;5083861;28;20194;-68
2023/09/27 08:15:43;;;;;;;35.75;32.05;;;;;;;;;;5079497;28;20039;-68
2023/09/27 08:18:09;;;;;;;35.28;31.80;;;;;;;;;;5080068;28;20044;-67
2023/09/27 08:20:35;;;;;;;36.60;32.50;;;;;;;;;;5073127;28;20398;-67
2023/09/27 08:23:02;;;;;;;34.47;31.08;;;;;;;;;;5073173;28;20091;-67
2023/09/27 08:25:28;;;;;;;36.88;33.08;;;;;;;;;;5072828;28;20048;-68
2023/09/27 08:27:55;;;;;;;35.40;30.73;;;;;;;;;;5071947;28;20045;-67
2023/09/27 08:30:21;;;;;;;35.75;32.13;;;;;;;;;;5079284;28;20036;-68
2023/09/27 08:32:47;;;;;;;35.55;31.90;;;;;;;;;;5073438;28;20036;-68
2023/09/27 08:35:13;;;;;;;37.63;33.78;;;;;;;;;;5082548;28;20048;-67
2023/09/27 08:37:39;;;;;;;35.85;32.25;;;;;;;;;;5093026;28;20101;-67
2023/09/27 08:40:07;;;;;;;39.45;35.22;;;;;;;;;;5084673;28;20048;-68
2023/09/27 08:42:34;;;;;;;36.00;32.25;;;;;;;;;;5073964;28;20059;-68
2023/09/27 08:45:01;;;;;;;38.95;34.78;;;;;;;;;;5084379;28;20040;-68
2023/09/27 08:47:30;;;;;;;36.90;33.40;;;;;;;;;;5090076;28;20108;-69
2023/09/27 08:49:58;;;;;;;38.88;34.70;;;;;;;;;;5079265;28;20483;-69
2023/09/27 08:52:26;;;;;;;39.33;32.00;;;;;;;;;;5071434;28;20120;-69
2023/09/27 08:54:52;;;;;;;37.33;33.25;;;;;;;;;;5073226;28;20056;-69
2023/09/27 08:57:19;;;;;;;36.50;31.75;;;;;;;;;;5070946;28;20486;-69
2023/09/27 08:59:45;;;;;;;34.97;31.20;;;;;;;;;;5074301;28;20045;-69
2023/09/27 09:02:13;;;;;;;35.90;32.25;;;;;;;;;;5071989;28;20047;-69
2023/09/27 09:04:40;;;;;;;37.80;33.22;;;;;;;;;;5076780;28;20494;-68
2023/09/27 09:07:07;;;;;;;62.85;33.83;;;;;;;;;;5090657;28;20036;-69
2023/09/27 09:09:33;;;;;;;35.65;31.15;;;;;;;;;;5072842;28;20045;-69
2023/09/27 09:12:08;;;;;;;33.38;30.00;;;;;;;;;;5080048;28;20494;-69
2023/09/27 09:14:39;;;;;;;33.88;30.40;;;;;;;;;;5075166;28;20067;-69
2023/09/27 09:17:07;;;;;;;33.50;30.20;;;;;;;;;;5085510;28;20055;-69
2023/09/27 09:19:37;;;;;;;32.97;28.98;;;;;;;;;;5082075;28;20036;-69
2023/09/27 09:22:08;;;;;;;34.03;30.52;;;;;;;;;;5078763;28;20041;-69
2023/09/27 09:24:40;;;;;;;33.40;30.10;;;;;;;;;;5085059;28;20071;-69
2023/09/27 09:27:11;;;;;;;32.10;28.73;;;;;;;;;;5080177;28;20076;-69
2023/09/27 09:29:47;;;;;;;33.60;30.30;;;;;;;;;;5091092;28;20139;-69
2023/09/27 09:32:15;;;;;;;33.55;30.35;;;;;;;;;;5090802;28;20044;-69
2023/09/27 09:34:41;;;;;;;34.05;30.52;;;;;;;;;;5091596;28;20101;-69
2023/09/27 09:37:28;;;;;;;32.58;29.35;;;;;;;;;;5088517;28;20036;-68
2023/09/27 09:40:12;;;;;;;30.95;27.85;;;;;;;;;;5080402;28;20056;-68
2023/09/27 09:42:39;;;;;;;32.28;29.00;;;;;;;;;;5085420;28;20475;-68
2023/09/27 09:45:07;;;;;;;31.00;27.80;;;;;;;;;;5088634;28;20083;-68
2023/09/27 09:47:37;;;;;;;30.15;27.25;;;;;;;;;;5075645;28;20510;-68
2023/09/27 09:50:08;;;;;;;30.67;27.65;;;;;;;;;;5075688;28;20093;-68
2023/09/27 09:52:38;;;;;;;27.92;25.02;;;;;;;;;;5091146;28;20119;-68
2023/09/27 09:55:06;;;;;;;30.17;27.10;;;;;;;;;;5080023;28;20103;-69
2023/09/27 09:57:35;;;;;;;28.15;25.13;;;;;;;;;;5082814;28;20050;-69
2023/09/27 10:00:16;;;;;;;26.73;24.02;;;;;;;;;;5078743;28;20058;-69
2023/09/27 10:02:42;;;;;;;;;;;;;;;;;;5081414;28;20403;-68
2023/09/27 10:05:09;;;;;;;27.05;24.25;;;;;;;;;;5086199;28;19920;-68
2023/09/27 10:07:35;;;;;;;26.83;24.08;;;;;;;;;;5072175;28;20434;-68
2023/09/27 10:10:03;;;;;;;27.90;24.98;;;;;;;;;;5086253;28;20415;-68
2023/09/27 10:12:30;;;;;;;27.25;24.10;;;;;;;;;;5078580;28;20043;-69
2023/09/27 10:14:57;;;;;;;27.65;24.52;;;;;;;;;;5081043;28;20494;-69
2023/09/27 10:17:25;;;;;;;27.98;25.08;;;;;;;;;;5077676;28;20037;-69
2023/09/27 10:20:12;;;;;;;26.55;23.83;;;;;;;;;;5077128;28;20131;-69
2023/09/27 10:22:42;;;;;;;29.05;24.60;;;;;;;;;;5091387;28;20047;-69
2023/09/27 10:25:23;;;;;;;26.33;23.63;;;;;;;;;;5073618;28;20044;-69
2023/09/27 10:28:02;;;;;;;25.52;22.92;;;;;;;;;;5071816;28;20448;-69
2023/09/27 10:30:48;;;;;;;24.13;21.55;;;;;;;;;;5071775;28;20445;-69
2023/09/27 10:33:17;;;;;;;24.58;20.90;;;;;;;;;;5074376;28;20053;-69
2023/09/27 10:35:47;;;;;;;24.15;21.55;;;;;;;;;;5078889;28;20050;-69
2023/09/27 10:38:15;;;;;;;23.30;20.67;;;;;;;;;;5089390;28;20511;-69
2023/09/27 10:40:42;;;;;;;23.80;21.05;;;;;;;;;;5074997;28;20384;-69
2023/09/27 10:43:08;;;;;;;24.10;21.52;;;;;;;;;;5093364;28;20044;-69
2023/09/27 10:45:34;;;;;;;26.30;23.60;;;;;;;;;;5082710;28;20533;-69
2023/09/27 10:48:18;;;;;;;26.48;23.70;;;;;;;;;;5078604;28;20108;-70
2023/09/27 10:50:57;;;;;;;25.88;23.10;;;;;;;;;;5084601;28;20044;-70
2023/09/27 10:53:23;;;;;;;24.95;22.15;;;;;;;;;;5069089;28;20080;-69
2023/09/27 10:55:49;;;;;;;23.95;21.33;;;;;;;;;;5072089;28;20044;-69
2023/09/27 10:58:16;;;;;;;23.20;20.90;;;;;;;;;;5071549;28;20063;-70
2023/09/27 11:01:11;;;;;;;25.30;22.50;;;;;;;;;;5084442;28;20502;-70
2023/09/27 11:03:37;;;;;;;22.67;20.38;;;;;;;;;;5090633;28;20113;-70
2023/09/27 11:06:16;;;;;;;21.60;19.38;;;;;;;;;;5077570;28;20045;-70
2023/09/27 11:08:43;;;;;;;23.52;19.75;;;;;;;;;;5074758;28;20410;-70
2023/09/27 11:11:11;;;;;;;24.58;21.92;;;;;;;;;;5082319;28;20124;-70
2023/09/27 11:13:46;;;;;;;25.50;21.23;;;;;;;;;;5086107;28;20047;-69
2023/09/27 11:16:18;;;;;;;23.52;21.08;;;;;;;;;;5074012;28;20043;-69
2023/09/27 11:18:56;;;;;;;24.50;22.13;;;;;;;;;;5079923;28;20043;-70
2023/09/27 11:21:26;;;;;;;23.40;20.98;;;;;;;;;;5079237;28;20440;-70
2023/09/27 11:23:52;;;;;;;26.92;20.70;;;;;;;;;;5073857;28;20122;-70
2023/09/27 11:26:19;;;;;;;24.05;20.17;;;;;;;;;;5076787;28;20165;-70
2023/09/27 11:29:00;;;;;;;22.02;19.08;;;;;;;;;;5076016;28;20109;-71
2023/09/27 11:31:26;;;;;;;;;;;;;;;;;;5080337;28;20052;-70
2023/09/27 11:33:53;;;;;;;21.75;19.30;;;;;;;;;;5091159;28;20301;-70
2023/09/27 11:36:19;;;;;;;19.58;17.55;;;;;;;;;;5084775;28;20051;-70
2023/09/27 11:38:50;;;;;;;19.85;17.85;;;;;;;;;;5076372;28;20376;-70
2023/09/27 11:41:16;;;;;;;19.92;17.83;;;;;;;;;;5076604;28;20115;-70
2023/09/27 11:43:44;;;;;;;19.58;17.50;;;;;;;;;;5076473;28;20044;-69
2023/09/27 11:46:10;;;;;;;20.67;17.77;;;;;;;;;;5073830;28;20162;-69
2023/09/27 11:48:36;;;;;;;21.08;17.10;;;;;;;;;;5080333;28;20522;-69
2023/09/27 11:51:02;;;;;;;18.90;16.10;;;;;;;;;;5080766;28;20438;-70
2023/09/27 11:53:28;;;;;;;19.35;16.33;;;;;;;;;;5076988;28;20052;-69
2023/09/27 11:55:59;;;;;;;20.00;15.73;;;;;;;;;;5073317;28;20049;-69
2023/09/27 11:58:26;;;;;;;18.90;16.13;;;;;;;;;;5073479;28;20124;-69
2023/09/27 12:00:52;;;;;;;18.83;15.63;;;;;;;;;;5087159;28;20039;-69
2023/09/27 12:03:18;;;;;;;18.63;15.63;;;;;;;;;;5085715;28;20062;-70
2023/09/27 12:05:44;;;;;;;21.23;14.45;;;;;;;;;;5085767;28;20093;-70
2023/09/27 12:08:10;;;;;;;17.52;15.65;;;;;;;;;;5077378;28;20063;-70
2023/09/27 12:10:37;;;;;;;20.48;15.13;;;;;;;;;;5074443;28;20051;-70
2023/09/27 12:13:03;;;;;;;18.17;15.55;;;;;;;;;;5060644;28;20465;-70
2023/09/27 12:15:29;;;;;;;20.60;15.90;;;;;;;;;;5077606;28;20105;-70
2023/09/27 12:17:55;;;;;;;17.42;15.55;;;;;;;;;;5082979;28;20051;-70
2023/09/27 12:20:22;;;;;;;18.35;16.30;;;;;;;;;;5081306;28;20052;-70
2023/09/27 12:22:48;;;;;;;18.33;15.00;;;;;;;;;;5085483;28;20123;-70
2023/09/27 12:25:14;;;;;;;16.25;14.55;;;;;;;;;;5079689;28;20052;-70
2023/09/27 12:27:40;;;;;;;16.45;14.05;;;;;;;;;;5078447;28;20070;-70
2023/09/27 12:30:08;;;;;;;19.58;15.23;;;;;;;;;;5080095;28;20040;-70
2023/09/27 12:32:34;;;;;;;18.13;14.57;;;;;;;;;;5072894;28;20052;-70
2023/09/27 12:35:00;;;;;;;18.73;14.23;;;;;;;;;;5073029;28;20052;-70
2023/09/27 12:37:26;;;;;;;17.00;12.15;;;;;;;;;;5072562;28;20072;-69
2023/09/27 12:39:53;;;;;;;16.90;12.30;;;;;;;;;;5091897;28;20101;-71
2023/09/27 12:42:20;;;;;;;16.17;11.20;;;;;;;;;;5074485;28;20058;-70
2023/09/27 12:44:46;;;;;;;14.27;11.30;;;;;;;;;;5083283;28;20044;-70
2023/09/27 12:47:14;;;;;;;15.75;11.80;;;;;;;;;;5091279;28;20500;-71
2023/09/27 12:49:40;;;;;;;17.02;12.38;;;;;;;;;;5085397;28;20044;-70
2023/09/27 12:52:06;;;;;;;16.52;12.65;;;;;;;;;;5073445;28;20491;-70
2023/09/27 12:54:32;;;;;;;15.63;12.45;;;;;;;;;;5079000;28;20044;-71
2023/09/27 12:56:59;;;;;;;15.48;13.75;;;;;;;;;;5071886;28;20052;-70
2023/09/27 12:59:26;;;;;;;17.15;12.07;;;;;;;;;;5084045;28;20054;-70
2023/09/27 13:01:52;;;;;;;17.25;12.23;;;;;;;;;;5091578;28;20476;-70
2023/09/27 13:04:18;;;;;;;13.80;11.85;;;;;;;;;;5091631;28;20505;-69
2023/09/27 13:06:44;;;;;;;13.15;11.57;;;;;;;;;;5073041;28;20052;-70
2023/09/27 13:09:11;;;;;;;16.15;11.07;;;;;;;;;;5075792;28;20052;-70
2023/09/27 13:11:37;;;;;;;15.40;10.73;;;;;;;;;;5073414;28;20048;-71
2023/09/27 13:14:03;;;;;;;15.30;10.45;;;;;;;;;;5082991;28;20088;-70
2023/09/27 13:16:29;;;;;;;14.35;9.85;;;;;;;;;;5084628;28;20113;-70
2023/09/27 13:18:55;;;;;;;10.73;6.85;;;;;;;;;;5078514;28;20052;-71
2023/09/27 13:21:21;;;;;;;9.70;6.10;;;;;;;;;;5080907;28;20513;-70
2023/09/27 13:23:47;;;;;;;13.02;6.28;;;;;;;;;;5072563;28;20067;-71
2023/09/27 13:26:13;;;;;;;10.68;7.03;;;;;;;;;;5077774;28;20487;-70
2023/09/27 13:28:39;;;;;;;14.15;8.27;;;;;;;;;;5081095;28;20516;-70
2023/09/27 13:31:05;;;;;;;8.20;6.95;;;;;;;;;;5079757;28;20061;-69
2023/09/27 13:33:31;;;;;;;12.60;7.88;;;;;;;;;;5078495;28;20041;-70
2023/09/27 13:35:59;;;;;;;12.25;7.65;;;;;;;;;;5090176;28;20089;-70
2023/09/27 13:38:26;;;;;;;11.07;7.32;;;;;;;;;;5082711;28;20131;-70
2023/09/27 13:40:52;;;;;;;10.45;6.95;;;;;;;;;;5081144;28;20142;-70
2023/09/27 13:43:18;;;;;;;14.45;7.43;;;;;;;;;;5076034;28;20045;-70
2023/09/27 13:45:44;;;;;;;12.10;7.32;;;;;;;;;;5083549;28;20048;-70
2023/09/27 13:48:10;;;;;;;11.00;6.55;;;;;;;;;;5085029;28;20550;-70
2023/09/27 13:50:37;;;;;;;12.38;6.68;;;;;;;;;;5083002;28;20164;-70
2023/09/27 13:53:03;;;;;;;9.93;6.30;;;;;;;;;;5078311;28;20124;-70
2023/09/27 13:55:30;;;;;;;11.75;6.43;;;;;;;;;;5084332;28;20452;-70
2023/09/27 13:57:56;;;;;;;10.60;7.18;;;;;;;;;;5083525;28;20051;-70
2023/09/27 14:00:22;;;;;;;10.38;7.53;;;;;;;;;;5071666;28;20048;-70
2023/09/27 14:02:48;;;;;;;13.48;7.30;;;;;;;;;;5082449;28;20047;-70
2023/09/27 14:05:14;;;;;;;11.82;7.28;;;;;;;;;;5082715;28;20498;-70
2023/09/27 14:07:42;;;;;;;12.50;6.80;;;;;;;;;;5084792;28;20074;-71
2023/09/27 14:10:08;;;;;;;10.68;6.20;;;;;;;;;;5075061;28;20057;-70
2023/09/27 14:12:34;;;;;;;12.27;7.10;;;;;;;;;;5079398;28;20048;-70
2023/09/27 14:15:00;;;;;;;11.25;6.63;;;;;;;;;;5078464;28;20474;-70
2023/09/27 14:17:27;;;;;;;10.75;6.30;;;;;;;;;;5084440;28;20110;-70
2023/09/27 14:19:55;;;;;;;10.38;5.95;;;;;;;;;;5082617;28;20048;-70